This is the latest recevied weather packets stored in our database for station/object EB1DWF. If no packets are shown the sender has not sent any weather packets the latest 10 day(s).
| Time | Temp. | Humidity | Pressure | Rain* | Wind** | Luminosity | Snow |
|---|---|---|---|---|---|---|---|
| 1778169244 | 20.56° C | 48% | 998.9 hPa | 0 mm | - | 540 W/m² | - |
| 1778168703 | 20.56° C | 48% | 999 hPa | 0 mm | - | 565 W/m² | - |
| 1778168163 | 21.11° C | 45% | 999.1 hPa | 0 mm | - | 596 W/m² | - |
| 1778167754 | 21.11° C | 43% | 999.2 hPa | 0 mm | - | 640 W/m² | - |
| 1778167216 | 21.11° C | 47% | 999.3 hPa | 0 mm | - | 727 W/m² | - |
| 1778166673 | 18.89° C | 50% | 999.5 hPa | 0 mm | - | 604 W/m² | - |
| 1778166003 | 20° C | 41% | 999.7 hPa | 0 mm | - | 130 W/m² | - |
| 1778165777 | 20.56° C | 39% | 999.6 hPa | 0 mm | - | 153 W/m² | - |
| 1778165234 | 18.89° C | 38% | 999.8 hPa | 0 mm | - | 598 W/m² | - |
| 1778164563 | 17.78° C | 38% | 1000.1 hPa | 0 mm | - | 146 W/m² | - |
| 1778164154 | 17.78° C | 39% | 1000.1 hPa | 0 mm | - | 97 W/m² | - |
| 1778163617 | 17.78° C | 40% | 1000.1 hPa | 0 mm | - | 59 W/m² | - |
| 1778163074 | 18.89° C | 41% | 1000.2 hPa | 0 mm | - | 87 W/m² | - |
| 1778162404 | 20° C | 38% | 999.8 hPa | 0 mm | - | 59 W/m² | - |
| 1778162173 | 20.56° C | 37% | 999.7 hPa | 0 mm | - | 73 W/m² | - |
| 1778161503 | 21.67° C | 32% | 999.5 hPa | 0 mm | - | 179 W/m² | - |
| 1778161098 | 22.78° C | 33% | 999.4 hPa | 0 mm | - | 310 W/m² | - |
| 1778160423 | 22.22° C | 33% | 999.4 hPa | 0 mm | - | 857 W/m² | - |
| 1778160017 | 22.22° C | 34% | 999.4 hPa | 0 mm | - | 823 W/m² | - |
| 1778159344 | 20.56° C | 37% | 999.4 hPa | 0 mm | - | 615 W/m² | - |
| 1778158806 | 21.11° C | 33% | 999.4 hPa | 0 mm | - | 146 W/m² | - |
| 1778158573 | 22.22° C | 29% | 999.5 hPa | 0 mm | - | 119 W/m² | - |
| 1778158036 | 21.11° C | 31% | 999.3 hPa | 0 mm | - | 229 W/m² | - |
| 1778157363 | 21.11° C | 32% | 999.3 hPa | 0 mm | - | 382 W/m² | - |
| 1778156955 | 21.67° C | 30% | 999.6 hPa | 0 mm | - | 239 W/m² | - |
* Rain latest hour (hover to see other rain measurements)
** Current wind speed in m/s (hover to see current wind gust speed)